Weather History for KPOV - March, 2012

Change the Weather History Date:

Saturday, March 3, 2012

  Actual Average (KCAK) Record (KCAK)
Temperature  
Mean Temperature 41 °F 33 °F  
Max Temperature 45 °F 41 °F 74 °F (1974)
Min Temperature 31 °F 25 °F -2 °F (1943)
Degree Days  
Heating Degree Days 24 32  
Month to date heating degree days 97  
Since 1 July heating degree days 4641  
Cooling Degree Days 0 0  
Month to date cooling degree days 0  
Year to date cooling degree days 0  
Moisture  
Dew Point 25 °F    
Average Humidity 66    
Maximum Humidity 71    
Minimum Humidity 59    
Precipitation  
Precipitation 0.00 in 0.09 in 0.85 in (1953)
Month to date precipitation 0.26  
Year to date precipitation 5.18  
Snow  
Snow - 0.30 in - ()
Month to date snowfall 1.0  
Since 1 July snowfall 37.5  
Snow Depth -    
Sea Level Pressure  
Sea Level Pressure 29.62 in    
Wind  
Wind Speed 15 mph ()    
Max Wind Speed 23 mph    
Max Gust Speed 39 mph    
Visibility 10.0 miles    
Events Snow    
T = Trace of Precipitation, MM = Missing Value Source: Averaged Metar Reports

Daily Weather History Graph

Daily Weather History Graph

Search for Another Location

Airport or City:

Trip Planner

Search our weather history database for the weather conditions in past years. The results will help you decide how hot, cold, wet, or windy it might be!

Date:

Astronomy

Mar. 03, 2012 Rise Set
Actual Time 6:55 AM EST 6:18 PM EST
Civil Twilight 6:27 AM EST 6:46 PM EST
Nautical Twilight 5:55 AM EST 7:18 PM EST
Astronomical Twilight 5:24 AM EST 7:50 PM EST
Moon 1:24 PM EST (3/3) 3:34 AM EST (3/3)
Length of Visible Light 12h 18m
Length of Day
11h 23m
Waxing Gibbous, 75% of the Moon is Illuminated
Mar 3
Waxing Gibbous
Mar 8
Full
Mar 14
Last Quarter
Mar 22
New
Mar 30
First Quarter

Hourly Weather History & Observations

Time (EST) Temp. Windchill Dew Point Humidity Pressure Visibility Wind Dir Wind Speed Gust Speed Precip Events Conditions
12:00 AM 51.6 °F - 41.4 °F 68% 29.37 in 10.0 mi WSW 18.4 mph 27.6 mph N/A   Mostly Cloudy
12:22 AM 48.2 °F - 38.7 °F 70% 29.39 in 10.0 mi SW 19.6 mph 31.1 mph N/A   Overcast
12:42 AM 47.3 °F - 35.8 °F 64% 29.40 in 10.0 mi WSW 13.8 mph 33.4 mph N/A   Overcast
1:00 AM 45.9 °F 38.0 °F 36.0 °F 68% 29.41 in 10.0 mi WSW 20.7 mph 26.5 mph N/A   Overcast
1:22 AM 41.9 °F 34.0 °F 32.0 °F 68% 29.44 in 10.0 mi SW 16.1 mph 31.1 mph N/A   Overcast
1:42 AM 40.3 °F 31.3 °F 31.6 °F 71% 29.45 in 10.0 mi WSW 18.4 mph 24.2 mph N/A   Overcast
2:00 AM 39.2 °F 30.5 °F 29.7 °F 69% 29.46 in 10.0 mi WSW 16.1 mph 27.6 mph N/A   Overcast
2:23 AM 38.8 °F 28.3 °F 29.3 °F 69% 29.47 in 10.0 mi WSW 23.0 mph 29.9 mph N/A   Overcast
2:42 AM 38.8 °F 30.0 °F 29.8 °F 70% 29.48 in 10.0 mi SW 16.1 mph 25.3 mph N/A   Overcast
3:00 AM 38.7 °F 29.5 °F 29.3 °F 69% 29.49 in 10.0 mi WSW 17.3 mph 36.8 mph N/A   Overcast
3:23 AM 38.5 °F 29.9 °F 29.3 °F 70% 29.50 in 10.0 mi WSW 15.0 mph 33.4 mph N/A   Overcast
3:42 AM 38.3 °F 29.7 °F 29.3 °F 70% 29.51 in 10.0 mi WSW 15.0 mph 27.6 mph N/A   Overcast
4:00 AM 37.8 °F 30.7 °F 28.4 °F 69% 29.52 in 10.0 mi WSW 10.4 mph 29.9 mph N/A   Overcast
4:22 AM 37.4 °F 27.8 °F 27.3 °F 67% 29.52 in 10.0 mi WSW 17.3 mph 32.2 mph N/A   Overcast
4:42 AM 37.0 °F 27.4 °F 27.7 °F 69% 29.53 in 10.0 mi WSW 17.3 mph 25.3 mph N/A   Overcast
5:00 AM 36.7 °F 26.9 °F 27.0 °F 68% 29.53 in 10.0 mi WSW 17.3 mph 27.6 mph N/A   Overcast
5:23 AM 36.7 °F 27.6 °F 26.8 °F 67% 29.55 in 10.0 mi WSW 15.0 mph 27.6 mph N/A   Overcast
5:42 AM 36.5 °F 26.3 °F 26.4 °F 67% 29.55 in 10.0 mi WSW 18.4 mph 25.3 mph N/A   Overcast
6:00 AM 36.5 °F 28.2 °F 26.8 °F 68% 29.56 in 10.0 mi WSW 12.7 mph 23.0 mph N/A   Overcast
6:22 AM 36.5 °F 29.7 °F 26.6 °F 67% 29.57 in 10.0 mi SW 9.2 mph 25.3 mph N/A   Overcast
6:42 AM 36.1 °F 28.7 °F 26.6 °F 68% 29.58 in 10.0 mi SW 10.4 mph 19.6 mph N/A   Overcast
7:00 AM 36.0 °F 28.5 °F 26.1 °F 67% 29.58 in 10.0 mi WSW 10.4 mph 20.7 mph N/A   Overcast
7:22 AM 35.8 °F 27.3 °F 25.7 °F 67% 29.58 in 10.0 mi SW 12.7 mph 26.5 mph N/A   Overcast
7:42 AM 35.6 °F 27.5 °F 25.7 °F 67% 29.59 in 10.0 mi SW 11.5 mph 25.3 mph N/A   Overcast
8:00 AM 35.4 °F 26.0 °F 24.3 °F 64% 29.59 in 10.0 mi WSW 15.0 mph 35.7 mph N/A   Overcast
8:23 AM 35.4 °F 25.3 °F 24.3 °F 64% 29.59 in 10.0 mi WSW 17.3 mph 23.0 mph N/A   Overcast
8:42 AM 35.2 °F 27.1 °F 24.8 °F 66% 29.60 in 10.0 mi WSW 11.5 mph 24.2 mph N/A   Overcast
9:00 AM 35.6 °F 25.9 °F 24.4 °F 64% 29.59 in 10.0 mi WSW 16.1 mph 35.7 mph N/A   Overcast
9:23 AM 35.6 °F 25.5 °F 24.6 °F 64% 29.60 in 10.0 mi WSW 17.3 mph 29.9 mph N/A   Overcast
9:42 AM 35.6 °F 25.9 °F 25.2 °F 66% 29.60 in 10.0 mi WSW 16.1 mph 23.0 mph N/A   Overcast
10:00 AM 35.6 °F 26.6 °F 25.0 °F 65% 29.60 in 10.0 mi WSW 13.8 mph 24.2 mph N/A   Overcast
10:22 AM 35.6 °F 26.6 °F 25.2 °F 66% 29.61 in 10.0 mi SW 13.8 mph 24.2 mph N/A   Overcast
10:42 AM 35.6 °F 25.5 °F 25.2 °F 66% 29.61 in 10.0 mi WSW 17.3 mph 29.9 mph N/A   Overcast
11:00 AM 35.8 °F 24.5 °F 23.7 °F 62% 29.62 in 10.0 mi WSW 21.9 mph 32.2 mph N/A   Overcast
11:22 AM 35.6 °F 24.2 °F 24.8 °F 65% 29.63 in 10.0 mi WSW 21.9 mph 33.4 mph N/A   Overcast
11:42 AM 35.1 °F 23.8 °F 24.4 °F 65% 29.64 in 10.0 mi WSW 20.7 mph 39.1 mph N/A   Overcast
12:00 PM 35.6 °F 24.8 °F 22.6 °F 59% 29.64 in 10.0 mi West 19.6 mph 38.0 mph N/A   Overcast
12:22 PM 35.8 °F 24.5 °F 22.8 °F 59% 29.65 in 10.0 mi West 21.9 mph 29.9 mph N/A   Overcast
12:42 PM 35.1 °F 24.8 °F 22.3 °F 60% 29.65 in 10.0 mi WSW 17.3 mph 36.8 mph N/A   Overcast
1:00 PM 34.9 °F 23.0 °F 22.6 °F 61% 29.65 in 10.0 mi WSW 23.0 mph 34.5 mph N/A   Overcast
1:22 PM 34.5 °F 24.1 °F 23.2 °F 63% 29.64 in 10.0 mi West 17.3 mph 31.1 mph N/A   Overcast
2:00 PM 33.4 °F 22.0 °F 22.8 °F 65% 29.66 in 10.0 mi West 19.6 mph 31.1 mph N/A   Overcast
2:23 PM 33.6 °F 22.9 °F 23.7 °F 67% 29.66 in 10.0 mi West 17.3 mph 27.6 mph N/A   Overcast
2:42 PM 33.4 °F 22.7 °F 23.4 °F 67% 29.66 in 10.0 mi WSW 17.3 mph 26.5 mph N/A   Overcast
3:00 PM 33.3 °F 21.5 °F 23.7 °F 68% 29.67 in 10.0 mi WSW 20.7 mph 27.6 mph N/A   Overcast
3:22 PM 33.8 °F 23.5 °F 21.9 °F 62% 29.67 in 10.0 mi WSW 16.1 mph 31.1 mph N/A   Overcast
3:42 PM 33.4 °F 22.3 °F 22.3 °F 64% 29.67 in 10.0 mi WSW 18.4 mph 31.1 mph N/A   Overcast
3:59 PM 33.3 °F 22.5 °F 22.1 °F 64% 29.67 in 10.0 mi WSW 17.3 mph 26.5 mph N/A   Overcast
4:23 PM 33.3 °F 24.1 °F 21.9 °F 63% 29.68 in 10.0 mi West 12.7 mph 20.7 mph N/A   Overcast
4:42 PM 33.4 °F 22.3 °F 21.9 °F 63% 29.68 in 10.0 mi WSW 18.4 mph 25.3 mph N/A   Overcast
5:00 PM 33.4 °F 21.7 °F 21.7 °F 62% 29.68 in 10.0 mi WSW 20.7 mph 27.6 mph N/A   Overcast
5:22 PM 33.3 °F 26.4 °F 22.6 °F 65% 29.68 in 10.0 mi WSW 8.1 mph 19.6 mph N/A   Overcast
5:42 PM 33.3 °F 23.7 °F 22.6 °F 65% 29.69 in 10.0 mi WSW 13.8 mph 25.3 mph N/A   Overcast
6:00 PM 33.3 °F 23.7 °F 22.8 °F 66% 29.70 in 10.0 mi WSW 13.8 mph 20.7 mph N/A   Overcast
6:23 PM 33.1 °F 24.4 °F 23.5 °F 68% 29.72 in 10.0 mi WSW 11.5 mph 16.1 mph N/A Snow Light Snow
6:42 PM 32.9 °F 23.2 °F 23.4 °F 68% 29.72 in 10.0 mi WSW 13.8 mph 21.9 mph N/A   Overcast
7:00 PM 33.3 °F 22.8 °F 21.7 °F 63% 29.73 in 10.0 mi WSW 16.1 mph 27.6 mph N/A   Overcast
7:23 PM 32.9 °F 22.8 °F 21.9 °F 64% 29.74 in 10.0 mi West 15.0 mph 25.3 mph N/A   Overcast
7:42 PM 32.9 °F 22.8 °F 21.9 °F 64% 29.74 in 10.0 mi WSW 15.0 mph 23.0 mph N/A   Overcast
8:00 PM 32.9 °F 25.3 °F 21.4 °F 63% 29.75 in 10.0 mi WSW 9.2 mph 19.6 mph N/A   Overcast
8:22 PM 32.5 °F 24.8 °F 21.9 °F 65% 29.75 in 10.0 mi WSW 9.2 mph 19.6 mph N/A   Overcast
8:42 PM 32.4 °F 24.0 °F 22.3 °F 66% 29.74 in 10.0 mi WSW 10.4 mph - N/A   Overcast
9:00 PM 32.2 °F 23.8 °F 23.0 °F 69% 29.74 in 10.0 mi WSW 10.4 mph 18.4 mph N/A   Overcast
9:22 PM 32.0 °F 24.2 °F 23.7 °F 71% 29.74 in 10.0 mi West 9.2 mph - N/A   Overcast
9:42 PM 32.0 °F 22.5 °F 23.2 °F 70% 29.74 in 10.0 mi WSW 12.7 mph 19.6 mph N/A   Overcast
10:00 PM 32.0 °F 23.6 °F 22.1 °F 67% 29.74 in 10.0 mi WSW 10.4 mph - N/A   Overcast
10:23 PM 31.8 °F 21.8 °F 21.0 °F 64% 29.74 in 10.0 mi West 13.8 mph 19.6 mph N/A   Overcast
10:42 PM 32.0 °F 23.6 °F 21.0 °F 64% 29.74 in 10.0 mi WSW 10.4 mph 19.6 mph N/A   Overcast
11:00 PM 32.0 °F 22.1 °F 21.0 °F 64% 29.74 in 10.0 mi WSW 13.8 mph 20.7 mph N/A   Overcast
11:22 PM 32.0 °F 24.8 °F 21.6 °F 65% 29.74 in 10.0 mi WSW 8.1 mph 17.3 mph N/A   Overcast
11:42 PM 31.1 °F 21.4 °F 22.6 °F 71% 29.74 in 10.0 mi WSW 12.7 mph 18.4 mph N/A Snow Light Snow